sensor_id;sensor_type;location;lat;lon;timestamp;P1;durP1;ratioP1;P2;durP2;ratioP2
1545;SDS011;766;51.502;9.752;2023-12-20T00:01:28;16.40;;;9.13;;
1545;SDS011;766;51.502;9.752;2023-12-20T00:03:57;17.95;;;10.55;;
1545;SDS011;766;51.502;9.752;2023-12-20T00:06:25;17.00;;;9.85;;
1545;SDS011;766;51.502;9.752;2023-12-20T00:08:55;18.95;;;10.77;;
1545;SDS011;766;51.502;9.752;2023-12-20T00:11:24;16.33;;;10.27;;
1545;SDS011;766;51.502;9.752;2023-12-20T00:13:52;17.33;;;10.20;;
1545;SDS011;766;51.502;9.752;2023-12-20T00:16:20;17.45;;;10.55;;
1545;SDS011;766;51.502;9.752;2023-12-20T00:18:48;16.17;;;10.10;;
1545;SDS011;766;51.502;9.752;2023-12-20T00:21:17;16.42;;;10.05;;
1545;SDS011;766;51.502;9.752;2023-12-20T00:23:45;19.92;;;10.25;;
1545;SDS011;766;51.502;9.752;2023-12-20T00:26:14;19.40;;;11.45;;
1545;SDS011;766;51.502;9.752;2023-12-20T00:28:42;22.88;;;11.43;;
1545;SDS011;766;51.502;9.752;2023-12-20T00:31:11;21.73;;;10.80;;
1545;SDS011;766;51.502;9.752;2023-12-20T00:33:39;18.50;;;11.23;;
1545;SDS011;766;51.502;9.752;2023-12-20T00:36:13;18.75;;;10.07;;
1545;SDS011;766;51.502;9.752;2023-12-20T00:38:41;17.00;;;10.30;;
1545;SDS011;766;51.502;9.752;2023-12-20T00:41:09;16.50;;;9.95;;
1545;SDS011;766;51.502;9.752;2023-12-20T00:43:39;19.20;;;11.07;;
1545;SDS011;766;51.502;9.752;2023-12-20T00:46:07;14.93;;;9.20;;
1545;SDS011;766;51.502;9.752;2023-12-20T00:48:36;14.20;;;8.98;;
1545;SDS011;766;51.502;9.752;2023-12-20T00:51:04;14.30;;;9.07;;
1545;SDS011;766;51.502;9.752;2023-12-20T00:53:32;19.55;;;9.60;;
1545;SDS011;766;51.502;9.752;2023-12-20T00:56:00;18.88;;;10.20;;
1545;SDS011;766;51.502;9.752;2023-12-20T00:58:28;15.73;;;9.38;;
1545;SDS011;766;51.502;9.752;2023-12-20T01:00:58;17.02;;;10.13;;
1545;SDS011;766;51.502;9.752;2023-12-20T01:03:26;15.00;;;9.05;;
1545;SDS011;766;51.502;9.752;2023-12-20T01:05:54;16.13;;;9.70;;
1545;SDS011;766;51.502;9.752;2023-12-20T01:08:23;16.35;;;9.60;;
1545;SDS011;766;51.502;9.752;2023-12-20T01:10:51;15.57;;;8.40;;
1545;SDS011;766;51.502;9.752;2023-12-20T01:13:19;14.73;;;7.93;;
1545;SDS011;766;51.502;9.752;2023-12-20T01:15:47;16.20;;;9.38;;
1545;SDS011;766;51.502;9.752;2023-12-20T01:18:17;14.82;;;8.80;;
1545;SDS011;766;51.502;9.752;2023-12-20T01:20:45;16.55;;;9.60;;
1545;SDS011;766;51.502;9.752;2023-12-20T01:23:13;17.60;;;10.15;;
1545;SDS011;766;51.502;9.752;2023-12-20T01:25:42;18.85;;;10.18;;
1545;SDS011;766;51.502;9.752;2023-12-20T01:28:10;19.38;;;9.68;;
1545;SDS011;766;51.502;9.752;2023-12-20T01:30:38;16.80;;;9.68;;
1545;SDS011;766;51.502;9.752;2023-12-20T01:33:06;15.30;;;9.50;;
1545;SDS011;766;51.502;9.752;2023-12-20T01:35:36;16.48;;;9.93;;
1545;SDS011;766;51.502;9.752;2023-12-20T01:38:04;19.58;;;11.02;;
1545;SDS011;766;51.502;9.752;2023-12-20T01:40:33;15.50;;;9.35;;
1545;SDS011;766;51.502;9.752;2023-12-20T01:43:01;16.85;;;9.57;;
1545;SDS011;766;51.502;9.752;2023-12-20T01:45:34;15.98;;;8.57;;
1545;SDS011;766;51.502;9.752;2023-12-20T01:48:02;12.88;;;8.48;;
1545;SDS011;766;51.502;9.752;2023-12-20T01:50:32;14.43;;;8.93;;
1545;SDS011;766;51.502;9.752;2023-12-20T01:53:04;15.90;;;8.40;;
1545;SDS011;766;51.502;9.752;2023-12-20T01:55:35;16.25;;;9.48;;
1545;SDS011;766;51.502;9.752;2023-12-20T01:58:06;14.05;;;8.40;;
1545;SDS011;766;51.502;9.752;2023-12-20T02:00:36;12.82;;;7.65;;
1545;SDS011;766;51.502;9.752;2023-12-20T02:03:05;16.58;;;8.45;;
1545;SDS011;766;51.502;9.752;2023-12-20T02:05:34;16.38;;;8.82;;
1545;SDS011;766;51.502;9.752;2023-12-20T02:08:05;12.30;;;7.05;;
1545;SDS011;766;51.502;9.752;2023-12-20T02:10:34;15.50;;;7.07;;
1545;SDS011;766;51.502;9.752;2023-12-20T02:13:03;12.23;;;6.25;;
1545;SDS011;766;51.502;9.752;2023-12-20T02:15:31;10.45;;;5.55;;
1545;SDS011;766;51.502;9.752;2023-12-20T02:18:03;8.20;;;4.55;;
1545;SDS011;766;51.502;9.752;2023-12-20T02:20:32;8.77;;;3.95;;
1545;SDS011;766;51.502;9.752;2023-12-20T02:23:01;8.48;;;3.38;;
1545;SDS011;766;51.502;9.752;2023-12-20T02:25:30;8.98;;;3.97;;
1545;SDS011;766;51.502;9.752;2023-12-20T02:27:58;7.93;;;3.85;;
1545;SDS011;766;51.502;9.752;2023-12-20T02:30:26;6.30;;;3.45;;
1545;SDS011;766;51.502;9.752;2023-12-20T02:32:54;6.38;;;3.75;;
1545;SDS011;766;51.502;9.752;2023-12-20T02:35:23;7.53;;;3.83;;
1545;SDS011;766;51.502;9.752;2023-12-20T02:37:52;6.15;;;4.00;;
1545;SDS011;766;51.502;9.752;2023-12-20T02:40:21;13.18;;;4.20;;
1545;SDS011;766;51.502;9.752;2023-12-20T02:42:49;12.60;;;4.30;;
1545;SDS011;766;51.502;9.752;2023-12-20T02:45:17;11.88;;;4.25;;
1545;SDS011;766;51.502;9.752;2023-12-20T02:47:45;9.77;;;3.50;;
1545;SDS011;766;51.502;9.752;2023-12-20T02:50:14;9.68;;;3.88;;
1545;SDS011;766;51.502;9.752;2023-12-20T02:55:12;12.45;;;4.15;;
1545;SDS011;766;51.502;9.752;2023-12-20T02:57:41;7.47;;;4.07;;
1545;SDS011;766;51.502;9.752;2023-12-20T03:00:10;9.05;;;4.03;;
1545;SDS011;766;51.502;9.752;2023-12-20T03:02:39;7.97;;;3.50;;
1545;SDS011;766;51.502;9.752;2023-12-20T03:05:07;13.48;;;3.42;;
1545;SDS011;766;51.502;9.752;2023-12-20T03:07:36;10.60;;;3.40;;
1545;SDS011;766;51.502;9.752;2023-12-20T03:10:05;10.07;;;3.15;;
1545;SDS011;766;51.502;9.752;2023-12-20T03:12:47;7.75;;;3.28;;
1545;SDS011;766;51.502;9.752;2023-12-20T03:15:16;12.68;;;2.95;;
1545;SDS011;766;51.502;9.752;2023-12-20T03:17:44;10.98;;;2.92;;
1545;SDS011;766;51.502;9.752;2023-12-20T03:20:16;14.80;;;3.50;;
1545;SDS011;766;51.502;9.752;2023-12-20T03:22:44;10.30;;;3.30;;
1545;SDS011;766;51.502;9.752;2023-12-20T03:25:12;8.35;;;3.22;;
1545;SDS011;766;51.502;9.752;2023-12-20T03:27:41;17.70;;;4.28;;
1545;SDS011;766;51.502;9.752;2023-12-20T03:30:11;8.85;;;3.47;;
1545;SDS011;766;51.502;9.752;2023-12-20T03:32:40;10.73;;;3.50;;
1545;SDS011;766;51.502;9.752;2023-12-20T03:35:08;11.13;;;3.42;;
1545;SDS011;766;51.502;9.752;2023-12-20T03:37:37;8.43;;;3.08;;
1545;SDS011;766;51.502;9.752;2023-12-20T03:40:05;15.10;;;2.47;;
1545;SDS011;766;51.502;9.752;2023-12-20T03:42:34;11.75;;;3.17;;
1545;SDS011;766;51.502;9.752;2023-12-20T03:45:02;6.97;;;3.15;;
1545;SDS011;766;51.502;9.752;2023-12-20T03:47:32;6.32;;;2.70;;
1545;SDS011;766;51.502;9.752;2023-12-20T03:50:00;10.02;;;2.97;;
1545;SDS011;766;51.502;9.752;2023-12-20T03:52:28;12.27;;;3.17;;
1545;SDS011;766;51.502;9.752;2023-12-20T03:54:56;8.70;;;4.00;;
1545;SDS011;766;51.502;9.752;2023-12-20T03:57:25;18.27;;;5.15;;
1545;SDS011;766;51.502;9.752;2023-12-20T03:59:53;8.70;;;3.20;;
1545;SDS011;766;51.502;9.752;2023-12-20T04:02:21;9.93;;;3.45;;
1545;SDS011;766;51.502;9.752;2023-12-20T04:04:50;14.07;;;3.67;;
1545;SDS011;766;51.502;9.752;2023-12-20T04:07:19;10.75;;;2.80;;
1545;SDS011;766;51.502;9.752;2023-12-20T04:09:48;8.88;;;3.95;;
1545;SDS011;766;51.502;9.752;2023-12-20T04:12:16;8.38;;;3.65;;
1545;SDS011;766;51.502;9.752;2023-12-20T04:14:44;11.05;;;3.75;;
1545;SDS011;766;51.502;9.752;2023-12-20T04:17:13;14.55;;;4.45;;
1545;SDS011;766;51.502;9.752;2023-12-20T04:19:43;10.73;;;3.67;;
1545;SDS011;766;51.502;9.752;2023-12-20T04:22:12;14.32;;;4.00;;
1545;SDS011;766;51.502;9.752;2023-12-20T04:24:41;22.05;;;3.88;;
1545;SDS011;766;51.502;9.752;2023-12-20T04:27:09;9.25;;;3.38;;
1545;SDS011;766;51.502;9.752;2023-12-20T04:29:37;10.45;;;4.15;;
1545;SDS011;766;51.502;9.752;2023-12-20T04:32:06;10.45;;;3.17;;
1545;SDS011;766;51.502;9.752;2023-12-20T04:34:34;10.13;;;3.15;;
1545;SDS011;766;51.502;9.752;2023-12-20T04:37:02;12.32;;;3.53;;
1545;SDS011;766;51.502;9.752;2023-12-20T04:39:32;12.45;;;3.30;;
1545;SDS011;766;51.502;9.752;2023-12-20T04:42:00;8.90;;;3.65;;
1545;SDS011;766;51.502;9.752;2023-12-20T04:44:28;11.93;;;3.08;;
1545;SDS011;766;51.502;9.752;2023-12-20T04:46:56;7.55;;;3.28;;
1545;SDS011;766;51.502;9.752;2023-12-20T04:49:24;9.00;;;3.03;;
1545;SDS011;766;51.502;9.752;2023-12-20T04:51:52;9.27;;;2.80;;
1545;SDS011;766;51.502;9.752;2023-12-20T04:54:23;14.32;;;2.80;;
1545;SDS011;766;51.502;9.752;2023-12-20T04:56:53;10.30;;;2.70;;
1545;SDS011;766;51.502;9.752;2023-12-20T04:59:21;8.50;;;3.22;;
1545;SDS011;766;51.502;9.752;2023-12-20T05:01:49;9.68;;;2.42;;
1545;SDS011;766;51.502;9.752;2023-12-20T05:04:18;7.18;;;2.30;;
1545;SDS011;766;51.502;9.752;2023-12-20T05:06:47;7.15;;;2.20;;
1545;SDS011;766;51.502;9.752;2023-12-20T05:09:16;7.95;;;2.28;;
1545;SDS011;766;51.502;9.752;2023-12-20T05:11:44;9.20;;;2.70;;
1545;SDS011;766;51.502;9.752;2023-12-20T05:14:13;11.68;;;2.45;;
1545;SDS011;766;51.502;9.752;2023-12-20T05:16:42;20.67;;;2.78;;
1545;SDS011;766;51.502;9.752;2023-12-20T05:19:10;16.63;;;2.80;;
1545;SDS011;766;51.502;9.752;2023-12-20T05:21:38;9.32;;;2.20;;
1545;SDS011;766;51.502;9.752;2023-12-20T05:24:06;16.35;;;2.90;;
1545;SDS011;766;51.502;9.752;2023-12-20T05:26:35;9.73;;;2.58;;
1545;SDS011;766;51.502;9.752;2023-12-20T05:29:03;9.02;;;2.35;;
1545;SDS011;766;51.502;9.752;2023-12-20T05:31:32;6.13;;;2.33;;
1545;SDS011;766;51.502;9.752;2023-12-20T05:34:01;7.60;;;2.50;;
1545;SDS011;766;51.502;9.752;2023-12-20T05:36:29;7.28;;;2.40;;
1545;SDS011;766;51.502;9.752;2023-12-20T05:38:57;11.90;;;3.88;;
1545;SDS011;766;51.502;9.752;2023-12-20T05:41:25;17.70;;;3.72;;
1545;SDS011;766;51.502;9.752;2023-12-20T05:43:53;12.15;;;3.45;;
1545;SDS011;766;51.502;9.752;2023-12-20T05:46:24;10.52;;;3.00;;
1545;SDS011;766;51.502;9.752;2023-12-20T05:48:53;9.45;;;2.50;;
1545;SDS011;766;51.502;9.752;2023-12-20T05:51:22;12.20;;;2.85;;
1545;SDS011;766;51.502;9.752;2023-12-20T05:53:50;6.47;;;2.50;;
1545;SDS011;766;51.502;9.752;2023-12-20T05:56:18;6.03;;;2.53;;
1545;SDS011;766;51.502;9.752;2023-12-20T05:58:46;8.75;;;2.72;;
1545;SDS011;766;51.502;9.752;2023-12-20T06:01:14;13.25;;;2.75;;
1545;SDS011;766;51.502;9.752;2023-12-20T06:03:47;12.13;;;3.45;;
1545;SDS011;766;51.502;9.752;2023-12-20T06:06:16;9.18;;;2.92;;
1545;SDS011;766;51.502;9.752;2023-12-20T06:08:46;8.65;;;2.58;;
1545;SDS011;766;51.502;9.752;2023-12-20T06:11:14;8.65;;;2.55;;
1545;SDS011;766;51.502;9.752;2023-12-20T06:13:42;13.85;;;2.80;;
1545;SDS011;766;51.502;9.752;2023-12-20T06:16:11;14.30;;;2.67;;
1545;SDS011;766;51.502;9.752;2023-12-20T06:18:39;15.35;;;2.45;;
1545;SDS011;766;51.502;9.752;2023-12-20T06:21:08;10.00;;;2.25;;
1545;SDS011;766;51.502;9.752;2023-12-20T06:23:40;10.05;;;2.25;;
1545;SDS011;766;51.502;9.752;2023-12-20T06:26:08;13.13;;;2.60;;
1545;SDS011;766;51.502;9.752;2023-12-20T06:28:37;11.93;;;2.30;;
1545;SDS011;766;51.502;9.752;2023-12-20T06:31:07;9.32;;;2.80;;
1545;SDS011;766;51.502;9.752;2023-12-20T06:33:35;9.10;;;2.28;;
1545;SDS011;766;51.502;9.752;2023-12-20T06:36:04;10.70;;;2.53;;
1545;SDS011;766;51.502;9.752;2023-12-20T06:38:35;10.00;;;2.25;;
1545;SDS011;766;51.502;9.752;2023-12-20T06:41:04;14.38;;;2.83;;
1545;SDS011;766;51.502;9.752;2023-12-20T06:43:33;16.45;;;1.95;;
1545;SDS011;766;51.502;9.752;2023-12-20T06:46:14;12.40;;;2.30;;
1545;SDS011;766;51.502;9.752;2023-12-20T06:48:44;13.43;;;2.58;;
1545;SDS011;766;51.502;9.752;2023-12-20T06:51:15;14.27;;;3.00;;
1545;SDS011;766;51.502;9.752;2023-12-20T06:53:44;17.75;;;2.83;;
1545;SDS011;766;51.502;9.752;2023-12-20T06:56:13;9.23;;;2.22;;
1545;SDS011;766;51.502;9.752;2023-12-20T06:58:45;10.63;;;2.45;;
1545;SDS011;766;51.502;9.752;2023-12-20T07:01:13;17.10;;;2.30;;
1545;SDS011;766;51.502;9.752;2023-12-20T07:03:42;10.40;;;2.30;;
1545;SDS011;766;51.502;9.752;2023-12-20T07:06:11;11.45;;;2.30;;
1545;SDS011;766;51.502;9.752;2023-12-20T07:08:40;13.85;;;2.78;;
1545;SDS011;766;51.502;9.752;2023-12-20T07:11:08;8.48;;;2.20;;
1545;SDS011;766;51.502;9.752;2023-12-20T07:13:37;10.80;;;2.78;;
1545;SDS011;766;51.502;9.752;2023-12-20T07:16:06;13.02;;;2.63;;
1545;SDS011;766;51.502;9.752;2023-12-20T07:18:34;12.95;;;2.60;;
1545;SDS011;766;51.502;9.752;2023-12-20T07:21:09;10.35;;;2.90;;
1545;SDS011;766;51.502;9.752;2023-12-20T07:23:47;11.23;;;2.53;;
1545;SDS011;766;51.502;9.752;2023-12-20T07:26:17;9.90;;;2.85;;
1545;SDS011;766;51.502;9.752;2023-12-20T07:28:47;12.18;;;2.63;;
1545;SDS011;766;51.502;9.752;2023-12-20T07:31:22;12.35;;;2.75;;
1545;SDS011;766;51.502;9.752;2023-12-20T07:33:50;17.08;;;3.03;;
1545;SDS011;766;51.502;9.752;2023-12-20T07:36:19;11.15;;;2.25;;
1545;SDS011;766;51.502;9.752;2023-12-20T07:38:49;13.50;;;2.63;;
1545;SDS011;766;51.502;9.752;2023-12-20T07:41:27;9.13;;;2.30;;
1545;SDS011;766;51.502;9.752;2023-12-20T07:43:57;14.82;;;2.83;;
1545;SDS011;766;51.502;9.752;2023-12-20T07:46:28;11.85;;;2.65;;
1545;SDS011;766;51.502;9.752;2023-12-20T07:48:57;16.83;;;3.60;;
1545;SDS011;766;51.502;9.752;2023-12-20T07:51:25;12.23;;;3.38;;
1545;SDS011;766;51.502;9.752;2023-12-20T07:53:54;14.88;;;3.30;;
1545;SDS011;766;51.502;9.752;2023-12-20T07:56:22;18.25;;;3.92;;
1545;SDS011;766;51.502;9.752;2023-12-20T07:58:50;17.50;;;3.05;;
1545;SDS011;766;51.502;9.752;2023-12-20T08:01:21;14.75;;;3.97;;
1545;SDS011;766;51.502;9.752;2023-12-20T08:03:50;17.27;;;3.10;;
1545;SDS011;766;51.502;9.752;2023-12-20T08:06:19;15.18;;;3.15;;
1545;SDS011;766;51.502;9.752;2023-12-20T08:08:49;12.98;;;2.90;;
1545;SDS011;766;51.502;9.752;2023-12-20T08:11:28;12.57;;;3.63;;
1545;SDS011;766;51.502;9.752;2023-12-20T08:13:56;19.08;;;3.13;;
1545;SDS011;766;51.502;9.752;2023-12-20T08:16:26;14.52;;;3.42;;
1545;SDS011;766;51.502;9.752;2023-12-20T08:18:54;13.85;;;3.67;;
1545;SDS011;766;51.502;9.752;2023-12-20T08:21:22;11.23;;;2.50;;
1545;SDS011;766;51.502;9.752;2023-12-20T08:23:51;19.90;;;3.30;;
1545;SDS011;766;51.502;9.752;2023-12-20T08:26:20;15.10;;;3.40;;
1545;SDS011;766;51.502;9.752;2023-12-20T08:28:50;9.23;;;3.20;;
1545;SDS011;766;51.502;9.752;2023-12-20T08:31:18;14.70;;;3.45;;
1545;SDS011;766;51.502;9.752;2023-12-20T08:33:49;8.35;;;3.17;;
1545;SDS011;766;51.502;9.752;2023-12-20T08:36:17;10.65;;;3.47;;
1545;SDS011;766;51.502;9.752;2023-12-20T08:38:50;21.02;;;3.13;;
1545;SDS011;766;51.502;9.752;2023-12-20T08:41:20;11.13;;;3.08;;
1545;SDS011;766;51.502;9.752;2023-12-20T08:43:48;11.48;;;3.38;;
1545;SDS011;766;51.502;9.752;2023-12-20T08:46:17;14.25;;;2.88;;
1545;SDS011;766;51.502;9.752;2023-12-20T08:48:45;12.68;;;3.30;;
1545;SDS011;766;51.502;9.752;2023-12-20T08:51:15;11.82;;;2.97;;
1545;SDS011;766;51.502;9.752;2023-12-20T08:53:43;9.48;;;2.92;;
1545;SDS011;766;51.502;9.752;2023-12-20T08:56:14;12.38;;;3.15;;
1545;SDS011;766;51.502;9.752;2023-12-20T08:58:43;14.98;;;3.58;;
1545;SDS011;766;51.502;9.752;2023-12-20T09:01:11;11.13;;;3.17;;
1545;SDS011;766;51.502;9.752;2023-12-20T09:03:40;21.90;;;3.78;;
1545;SDS011;766;51.502;9.752;2023-12-20T09:06:08;16.85;;;3.83;;
1545;SDS011;766;51.502;9.752;2023-12-20T09:08:37;16.23;;;3.33;;
1545;SDS011;766;51.502;9.752;2023-12-20T09:11:06;12.68;;;2.90;;
1545;SDS011;766;51.502;9.752;2023-12-20T09:13:34;10.55;;;2.90;;
1545;SDS011;766;51.502;9.752;2023-12-20T09:16:03;15.43;;;3.60;;
1545;SDS011;766;51.502;9.752;2023-12-20T09:18:31;9.18;;;2.95;;
1545;SDS011;766;51.502;9.752;2023-12-20T09:20:59;12.05;;;2.95;;
1545;SDS011;766;51.502;9.752;2023-12-20T09:23:28;8.00;;;2.33;;
1545;SDS011;766;51.502;9.752;2023-12-20T09:25:58;14.82;;;3.42;;
1545;SDS011;766;51.502;9.752;2023-12-20T09:28:26;8.88;;;2.47;;
1545;SDS011;766;51.502;9.752;2023-12-20T09:30:54;10.25;;;3.00;;
1545;SDS011;766;51.502;9.752;2023-12-20T09:33:22;16.23;;;4.05;;
1545;SDS011;766;51.502;9.752;2023-12-20T09:35:51;16.20;;;3.25;;
1545;SDS011;766;51.502;9.752;2023-12-20T09:38:20;13.63;;;3.20;;
1545;SDS011;766;51.502;9.752;2023-12-20T09:40:49;18.92;;;2.92;;
1545;SDS011;766;51.502;9.752;2023-12-20T09:43:19;12.65;;;2.80;;
1545;SDS011;766;51.502;9.752;2023-12-20T09:45:48;10.93;;;2.63;;
1545;SDS011;766;51.502;9.752;2023-12-20T09:48:17;10.85;;;3.50;;
1545;SDS011;766;51.502;9.752;2023-12-20T09:50:46;11.93;;;2.72;;
1545;SDS011;766;51.502;9.752;2023-12-20T09:53:19;15.07;;;3.40;;
1545;SDS011;766;51.502;9.752;2023-12-20T09:55:49;12.85;;;3.03;;
1545;SDS011;766;51.502;9.752;2023-12-20T09:58:19;8.50;;;3.17;;
1545;SDS011;766;51.502;9.752;2023-12-20T10:00:48;15.15;;;3.33;;
1545;SDS011;766;51.502;9.752;2023-12-20T10:03:17;6.43;;;2.92;;
1545;SDS011;766;51.502;9.752;2023-12-20T10:05:50;8.90;;;2.97;;
1545;SDS011;766;51.502;9.752;2023-12-20T10:08:22;16.38;;;3.50;;
1545;SDS011;766;51.502;9.752;2023-12-20T10:10:51;13.70;;;3.10;;
1545;SDS011;766;51.502;9.752;2023-12-20T10:13:21;14.32;;;2.97;;
1545;SDS011;766;51.502;9.752;2023-12-20T10:15:49;12.10;;;3.15;;
1545;SDS011;766;51.502;9.752;2023-12-20T10:18:18;9.05;;;3.03;;
1545;SDS011;766;51.502;9.752;2023-12-20T10:20:47;13.13;;;3.20;;
1545;SDS011;766;51.502;9.752;2023-12-20T10:23:15;10.05;;;3.20;;
1545;SDS011;766;51.502;9.752;2023-12-20T10:25:49;9.23;;;2.95;;
1545;SDS011;766;51.502;9.752;2023-12-20T10:28:25;14.93;;;3.10;;
1545;SDS011;766;51.502;9.752;2023-12-20T10:30:54;14.65;;;3.08;;
1545;SDS011;766;51.502;9.752;2023-12-20T10:33:24;12.90;;;3.65;;
1545;SDS011;766;51.502;9.752;2023-12-20T10:35:53;11.23;;;2.95;;
1545;SDS011;766;51.502;9.752;2023-12-20T10:38:22;14.23;;;3.33;;
1545;SDS011;766;51.502;9.752;2023-12-20T10:40:52;17.50;;;3.00;;
1545;SDS011;766;51.502;9.752;2023-12-20T10:43:25;9.27;;;2.65;;
1545;SDS011;766;51.502;9.752;2023-12-20T10:45:56;5.07;;;2.67;;
1545;SDS011;766;51.502;9.752;2023-12-20T10:48:26;16.20;;;3.08;;
1545;SDS011;766;51.502;9.752;2023-12-20T10:50:57;11.65;;;3.13;;
1545;SDS011;766;51.502;9.752;2023-12-20T10:53:25;9.02;;;2.85;;
1545;SDS011;766;51.502;9.752;2023-12-20T10:55:55;10.05;;;2.95;;
1545;SDS011;766;51.502;9.752;2023-12-20T10:58:25;12.23;;;2.95;;
1545;SDS011;766;51.502;9.752;2023-12-20T11:00:54;10.27;;;2.97;;
1545;SDS011;766;51.502;9.752;2023-12-20T11:03:28;8.90;;;2.92;;
1545;SDS011;766;51.502;9.752;2023-12-20T11:06:03;8.20;;;2.67;;
1545;SDS011;766;51.502;9.752;2023-12-20T11:08:38;8.35;;;2.85;;
1545;SDS011;766;51.502;9.752;2023-12-20T11:11:12;10.85;;;2.80;;
1545;SDS011;766;51.502;9.752;2023-12-20T11:13:55;13.93;;;3.15;;
1545;SDS011;766;51.502;9.752;2023-12-20T11:16:27;9.27;;;2.78;;
1545;SDS011;766;51.502;9.752;2023-12-20T11:19:13;8.80;;;3.13;;
1545;SDS011;766;51.502;9.752;2023-12-20T11:21:42;6.30;;;2.92;;
1545;SDS011;766;51.502;9.752;2023-12-20T11:24:10;6.38;;;2.70;;
1545;SDS011;766;51.502;9.752;2023-12-20T11:26:38;9.40;;;2.40;;
1545;SDS011;766;51.502;9.752;2023-12-20T11:29:32;8.93;;;2.30;;
1545;SDS011;766;51.502;9.752;2023-12-20T11:32:02;7.47;;;2.90;;
1545;SDS011;766;51.502;9.752;2023-12-20T11:34:31;6.97;;;2.83;;
1545;SDS011;766;51.502;9.752;2023-12-20T11:37:02;10.55;;;2.70;;
1545;SDS011;766;51.502;9.752;2023-12-20T11:39:30;6.75;;;2.15;;
1545;SDS011;766;51.502;9.752;2023-12-20T11:42:03;9.50;;;3.00;;
1545;SDS011;766;51.502;9.752;2023-12-20T11:44:33;9.13;;;2.70;;
1545;SDS011;766;51.502;9.752;2023-12-20T11:47:03;7.50;;;2.25;;
1545;SDS011;766;51.502;9.752;2023-12-20T11:49:32;6.45;;;2.10;;
1545;SDS011;766;51.502;9.752;2023-12-20T11:52:00;7.20;;;2.50;;
1545;SDS011;766;51.502;9.752;2023-12-20T11:54:29;8.23;;;2.47;;
1545;SDS011;766;51.502;9.752;2023-12-20T11:56:58;8.13;;;2.45;;
1545;SDS011;766;51.502;9.752;2023-12-20T11:59:26;7.70;;;2.42;;
1545;SDS011;766;51.502;9.752;2023-12-20T12:01:56;10.77;;;2.20;;
1545;SDS011;766;51.502;9.752;2023-12-20T12:04:28;6.90;;;2.30;;
1545;SDS011;766;51.502;9.752;2023-12-20T12:06:56;7.82;;;1.90;;
1545;SDS011;766;51.502;9.752;2023-12-20T12:09:24;9.05;;;2.22;;
1545;SDS011;766;51.502;9.752;2023-12-20T12:11:53;8.65;;;2.45;;
1545;SDS011;766;51.502;9.752;2023-12-20T12:14:21;9.38;;;2.38;;
1545;SDS011;766;51.502;9.752;2023-12-20T12:16:49;6.82;;;2.63;;
1545;SDS011;766;51.502;9.752;2023-12-20T12:19:21;8.75;;;2.55;;
1545;SDS011;766;51.502;9.752;2023-12-20T12:21:50;10.38;;;2.70;;
1545;SDS011;766;51.502;9.752;2023-12-20T12:24:20;9.77;;;2.92;;
1545;SDS011;766;51.502;9.752;2023-12-20T12:26:52;11.95;;;2.72;;
1545;SDS011;766;51.502;9.752;2023-12-20T12:29:20;6.97;;;2.33;;
1545;SDS011;766;51.502;9.752;2023-12-20T12:31:48;12.88;;;2.42;;
1545;SDS011;766;51.502;9.752;2023-12-20T12:34:16;9.02;;;2.53;;
1545;SDS011;766;51.502;9.752;2023-12-20T12:36:47;11.80;;;2.50;;
1545;SDS011;766;51.502;9.752;2023-12-20T12:39:17;9.10;;;2.05;;
1545;SDS011;766;51.502;9.752;2023-12-20T12:41:45;11.15;;;2.70;;
1545;SDS011;766;51.502;9.752;2023-12-20T12:44:14;9.93;;;2.70;;
1545;SDS011;766;51.502;9.752;2023-12-20T12:46:43;9.82;;;2.70;;
1545;SDS011;766;51.502;9.752;2023-12-20T12:49:12;6.32;;;2.15;;
1545;SDS011;766;51.502;9.752;2023-12-20T12:51:41;7.20;;;2.40;;
1545;SDS011;766;51.502;9.752;2023-12-20T12:54:11;12.70;;;2.67;;
1545;SDS011;766;51.502;9.752;2023-12-20T12:56:42;6.30;;;2.38;;
1545;SDS011;766;51.502;9.752;2023-12-20T12:59:10;6.03;;;2.70;;
1545;SDS011;766;51.502;9.752;2023-12-20T13:01:38;11.45;;;3.15;;
1545;SDS011;766;51.502;9.752;2023-12-20T13:04:07;11.40;;;2.75;;
1545;SDS011;766;51.502;9.752;2023-12-20T13:06:37;11.27;;;2.28;;
1545;SDS011;766;51.502;9.752;2023-12-20T13:09:07;12.93;;;3.05;;
1545;SDS011;766;51.502;9.752;2023-12-20T13:11:37;11.32;;;3.30;;
1545;SDS011;766;51.502;9.752;2023-12-20T13:14:06;12.65;;;4.10;;
1545;SDS011;766;51.502;9.752;2023-12-20T13:16:37;9.77;;;3.30;;
1545;SDS011;766;51.502;9.752;2023-12-20T13:19:05;14.82;;;4.55;;
1545;SDS011;766;51.502;9.752;2023-12-20T13:21:33;14.90;;;3.08;;
1545;SDS011;766;51.502;9.752;2023-12-20T13:24:02;9.07;;;3.15;;
1545;SDS011;766;51.502;9.752;2023-12-20T13:26:30;10.27;;;3.58;;
1545;SDS011;766;51.502;9.752;2023-12-20T13:29:00;9.48;;;3.38;;
1545;SDS011;766;51.502;9.752;2023-12-20T13:31:28;8.90;;;4.10;;
1545;SDS011;766;51.502;9.752;2023-12-20T13:33:57;11.18;;;4.82;;
1545;SDS011;766;51.502;9.752;2023-12-20T13:36:27;8.93;;;4.43;;
1545;SDS011;766;51.502;9.752;2023-12-20T13:38:55;14.82;;;4.63;;
1545;SDS011;766;51.502;9.752;2023-12-20T13:41:23;10.05;;;3.10;;
1545;SDS011;766;51.502;9.752;2023-12-20T13:43:51;24.50;;;3.90;;
1545;SDS011;766;51.502;9.752;2023-12-20T13:46:21;7.55;;;2.97;;
1545;SDS011;766;51.502;9.752;2023-12-20T13:48:50;12.40;;;3.33;;
1545;SDS011;766;51.502;9.752;2023-12-20T13:51:18;9.70;;;4.18;;
1545;SDS011;766;51.502;9.752;2023-12-20T13:53:47;10.57;;;3.78;;
1545;SDS011;766;51.502;9.752;2023-12-20T13:56:16;7.03;;;3.83;;
1545;SDS011;766;51.502;9.752;2023-12-20T13:58:46;10.43;;;3.78;;
1545;SDS011;766;51.502;9.752;2023-12-20T14:01:18;11.30;;;3.50;;
1545;SDS011;766;51.502;9.752;2023-12-20T14:03:47;9.43;;;3.47;;
1545;SDS011;766;51.502;9.752;2023-12-20T14:06:16;10.90;;;3.20;;
1545;SDS011;766;51.502;9.752;2023-12-20T14:08:44;15.52;;;4.10;;
1545;SDS011;766;51.502;9.752;2023-12-20T14:11:12;8.18;;;3.15;;
1545;SDS011;766;51.502;9.752;2023-12-20T14:13:42;10.82;;;3.00;;
1545;SDS011;766;51.502;9.752;2023-12-20T14:16:10;13.98;;;3.88;;
1545;SDS011;766;51.502;9.752;2023-12-20T14:18:39;13.50;;;4.03;;
1545;SDS011;766;51.502;9.752;2023-12-20T14:21:08;9.90;;;3.35;;
1545;SDS011;766;51.502;9.752;2023-12-20T14:23:37;8.93;;;3.10;;
1545;SDS011;766;51.502;9.752;2023-12-20T14:26:05;12.68;;;3.33;;
1545;SDS011;766;51.502;9.752;2023-12-20T14:28:33;9.27;;;3.20;;
1545;SDS011;766;51.502;9.752;2023-12-20T14:31:01;11.18;;;3.05;;
1545;SDS011;766;51.502;9.752;2023-12-20T14:33:29;7.22;;;2.72;;
1545;SDS011;766;51.502;9.752;2023-12-20T14:35:58;8.68;;;2.85;;
1545;SDS011;766;51.502;9.752;2023-12-20T14:38:27;9.82;;;3.28;;
1545;SDS011;766;51.502;9.752;2023-12-20T14:40:55;14.80;;;3.72;;
1545;SDS011;766;51.502;9.752;2023-12-20T14:43:24;16.05;;;3.03;;
1545;SDS011;766;51.502;9.752;2023-12-20T14:45:53;11.38;;;2.47;;
1545;SDS011;766;51.502;9.752;2023-12-20T14:48:21;13.57;;;2.85;;
1545;SDS011;766;51.502;9.752;2023-12-20T14:50:49;6.93;;;2.90;;
1545;SDS011;766;51.502;9.752;2023-12-20T14:53:18;8.85;;;2.60;;
1545;SDS011;766;51.502;9.752;2023-12-20T14:55:50;11.90;;;2.83;;
1545;SDS011;766;51.502;9.752;2023-12-20T14:58:18;4.28;;;2.22;;
1545;SDS011;766;51.502;9.752;2023-12-20T15:00:46;10.27;;;3.42;;
1545;SDS011;766;51.502;9.752;2023-12-20T15:03:15;6.75;;;2.65;;
1545;SDS011;766;51.502;9.752;2023-12-20T15:05:44;9.90;;;3.00;;
1545;SDS011;766;51.502;9.752;2023-12-20T15:08:14;9.35;;;2.45;;
1545;SDS011;766;51.502;9.752;2023-12-20T15:10:42;12.30;;;4.20;;
1545;SDS011;766;51.502;9.752;2023-12-20T15:13:12;8.95;;;2.92;;
1545;SDS011;766;51.502;9.752;2023-12-20T15:15:40;6.95;;;3.00;;
1545;SDS011;766;51.502;9.752;2023-12-20T15:18:12;6.30;;;2.80;;
1545;SDS011;766;51.502;9.752;2023-12-20T15:20:41;10.40;;;2.50;;
1545;SDS011;766;51.502;9.752;2023-12-20T15:23:11;9.60;;;2.22;;
1545;SDS011;766;51.502;9.752;2023-12-20T15:25:39;6.75;;;2.67;;
1545;SDS011;766;51.502;9.752;2023-12-20T15:28:08;6.45;;;2.63;;
1545;SDS011;766;51.502;9.752;2023-12-20T15:30:39;9.18;;;3.80;;
1545;SDS011;766;51.502;9.752;2023-12-20T15:33:10;4.95;;;2.55;;
1545;SDS011;766;51.502;9.752;2023-12-20T15:35:38;7.80;;;3.03;;